• Join FlightAware (Why Join?)
  • Login
  • US Flag 
10:38AM EDT


 

Airport Tracker/Info


-or-


 

Live Flight TrackerFlight Track Log ✈ N757AF ✈ 11-Mar-2012 ✈ KMIA - KLGA

Flight Track Log - Related Links

Times and Time Zones

All times are in EDT time to prevent confusion due to time zone crossing. See the N757AF flight status page for this flight to view local times or setup timezone preferences in your user account.

Time Position Orientation Groundspeed Altitude Reporting Facility
EDT Latitude Longitude Course Direction KTS MPH feet Rate Location/Type
07:43PM 25.8003 -80.2744 87° East 149 171 1,200  Level Miami Center
07:45PM 25.8042 -80.1917 85° East 232 267 4,500 2,520 Climbing Miami Center
07:46PM 25.8131 -80.0786 78° East 277 319 8,200 2,880 Climbing Miami Center
07:47PM 25.8294 -79.9939 49° Northeast 277 319 11,500 2,580 Climbing Miami Center
07:48PM 25.8917 -79.9144 48° Northeast 284 327 13,400 2,400 Climbing Miami Center
07:49PM 25.9603 -79.8286 37° Northeast 333 383 16,300 2,640 Climbing Miami Center
07:50PM 26.0475 -79.7544 33° Northeast 363 418 18,700 2,460 Climbing Miami Center
07:51PM 26.1450 -79.6828 34° Northeast 389 448 21,300 2,400 Climbing Miami Center
07:52PM 26.2447 -79.6064 36° Northeast 415 478 23,500 2,100 Climbing Miami Center
07:53PM 26.3336 -79.5342 28° Northeast 439 505 25,600 2,100 Climbing Miami Center
07:54PM 26.4583 -79.4603 26° Northeast 451 519 27,700 1,860 Climbing Miami Center
07:55PM 26.5764 -79.3956 26° Northeast 457 526 29,400 1,980 Climbing Miami Center
07:56PM 26.6944 -79.3308 26° Northeast 463 533 31,700 2,220 Climbing Miami Center
07:57PM 26.8103 -79.2681 24° Northeast 463 533 33,900 2,340 Climbing Miami Center
07:58PM 26.9261 -79.2097 25° Northeast 463 533 36,400 2,160 Climbing Miami Center
07:59PM 27.0336 -79.1536 24° Northeast 443 510 38,300 1,620 Climbing Miami Center
08:00PM 27.1283 -79.1067 North 410 472 39,700 840 Climbing Miami Center
08:01PM 27.2414 -79.0878 11° North 405 466 40,000 300 Climbing Miami Center
08:02PM 27.3733 -79.0600 10° North 414 476 40,400 480 Climbing Miami Center
08:03PM 27.4928 -79.0364 North 427 491 41,000 300 Climbing Miami Center
08:04PM 27.6122 -79.0200 North 432 497 41,000  Level Miami Center
08:05PM 27.7167 -79.0031 North 423 487 41,000  Level Miami Center
08:06PM 27.8339 -78.9842 North 423 487 41,000  Level Miami Center
08:07PM 27.9636 -78.9631 North 430 495 41,000  Level Miami Center
08:08PM 28.0808 -78.9442 North 424 488 41,000  Level Miami Center
08:09PM 28.1961 -78.9250 North 429 494 41,000  Level Miami Center
08:10PM 28.3172 -78.9083 North 429 494 41,000  Level Miami Center
08:11PM 28.4344 -78.8869 North 429 494 41,000  Level Miami Center
08:12PM 28.5536 -78.8700 North 423 487 41,000  Level Miami Center
08:13PM 28.6731 -78.8486 North 431 496 41,000  Level Miami Center
08:14PM 28.7922 -78.8294 North 425 489 41,000  Level Miami Center
08:15PM 28.9072 -78.8100 North 425 489 41,000  Level Miami Center
08:16PM 29.0264 -78.7931 North 425 489 41,000  Level Miami Center
08:17PM 29.1436 -78.7739 North 425 489 41,000  Level Miami Center
08:18PM 29.2542 -78.7544 North 420 483 41,000  Level Miami Center
08:19PM 29.3692 -78.7372 11° North 420 483 41,000  Level Miami Center
08:20PM 29.4800 -78.7131 North 419 482 41,000  Level Miami Center
08:22PM 29.6897 -78.6803 North 425 489 41,000  Level Jacksonville Center
08:23PM 29.8061 -78.6611 North 415 478 41,000  Level Jacksonville Center
08:24PM 29.9203 -78.6464 North 410 472 41,000  Level Jacksonville Center
08:25PM 30.0344 -78.6269 North 404 465 41,000  Level Jacksonville Center
08:26PM 30.1486 -78.6100 11° North 409 471 41,000  Level Jacksonville Center
08:27PM 30.2481 -78.5886 North 393 452 41,000  Level Jacksonville Center
08:28PM 30.3519 -78.5697 North 384 442 41,000  Level Jacksonville Center
08:29PM 30.4722 -78.5497 North 407 468 41,000  Level Jacksonville Center
08:30PM 30.5883 -78.5300 North 407 468 41,000  Level Jacksonville Center
08:31PM 30.7006 -78.5128 North 412 474 41,000  Level Jacksonville Center
08:32PM 30.8167 -78.4903 North 412 474 41,000  Level Jacksonville Center
08:33PM 30.9308 -78.4706 North 417 480 41,000  Level Jacksonville Center
08:34PM 31.0803 -78.4442 North 505 581 41,000  Level Jacksonville Center
08:35PM 31.1964 -78.4267 North 459 528 41,000  Level Jacksonville Center
08:36PM 31.3189 -78.4061 North 414 476 41,000  Level Jacksonville Center
08:37PM 31.4392 -78.3833 North 405 466 41,000  Level Jacksonville Center
08:38PM 31.5575 -78.3631 North 421 484 41,000  Level Jacksonville Center
08:39PM 31.6758 -78.3450 North 449 517 41,000  Level Jacksonville Center
08:40PM 31.7981 -78.3219 North 443 510 41,000  Level Jacksonville Center
08:41PM 31.9164 -78.3061 North 438 504 41,000  Level Jacksonville Center
08:42PM 32.0347 -78.2831 North 438 504 41,000  Level Jacksonville Center
08:43PM 32.1550 -78.2647 North 432 497 41,000  Level Jacksonville Center
08:44PM 32.2753 -78.2414 North 432 497 41,000  Level Jacksonville Center
08:45PM 32.3917 -78.2283 10° North 426 490 41,000  Level Jacksonville Center
08:46PM 32.5097 -78.2025 North 421 484 41,000  Level Jacksonville Center
08:47PM 32.6300 -78.1839 North 426 490 41,000  Level Jacksonville Center
08:48PM 32.7525 -78.1628 North 431 496 41,000  Level Jacksonville Center
08:49PM 32.8725 -78.1392 North 437 503 41,000  Level Jacksonville Center
08:50PM 32.9950 -78.1203 North 437 503 41,000  Level Jacksonville Center
08:52PM 33.2303 -78.0764 North 456 525 41,000  Level Washington Center
08:53PM 33.3494 -78.0575 North 445 512 41,000  Level Washington Center
08:54PM 33.4667 -78.0386 North 435 501 41,000  Level Washington Center
08:55PM 33.5839 -78.0172 North 425 489 41,000  Level Washington Center
08:56PM 33.7014 -77.9956 North 425 489 41,000  Level Washington Center
08:57PM 33.8164 -77.9764 12° North 425 489 41,000  Level Washington Center
08:58PM 33.9422 -77.9450 North 440 506 41,000  Level Washington Center
08:59PM 34.0594 -77.9256 North 434 499 41,000  Level Washington Center
09:00PM 34.1767 -77.9064 North 429 494 41,000  Level Washington Center
09:01PM 34.2814 -77.8867 North 429 494 41,000  Level Washington Center
09:02PM 34.4047 -77.8725 North 429 494 41,000  Level Washington Center
09:03PM 34.5197 -77.8606 North 423 487 41,000  Level Washington Center
09:04PM 34.6367 -77.8486 North 423 487 41,000  Level Washington Center
09:05PM 34.7517 -77.8367 North 423 487 41,000  Level Washington Center
09:06PM 34.8647 -77.8222 North 423 487 41,000  Level Washington Center
09:07PM 34.9797 -77.8075 North 418 481 41,000  Level Washington Center
09:08PM 35.0967 -77.7981 North 413 475 41,000  Level Washington Center
09:09PM 35.2222 -77.7836 North 408 470 41,000  Level Washington Center
09:10PM 35.3392 -77.7717 North 408 470 41,000  Level Washington Center
09:11PM 35.4500 -77.7619 North 408 470 41,000  Level Washington Center
09:12PM 35.5669 -77.7497 North 408 470 41,000  Level Washington Center
09:13PM 35.6819 -77.7375 North 413 475 41,000  Level Washington Center
09:14PM 35.7969 -77.7253 North 413 475 41,000  Level Washington Center
09:15PM 35.9142 -77.7103 11° North 413 475 41,000  Level Washington Center
09:16PM 36.0272 -77.6828 20° North 413 475 41,000  Level Washington Center
09:17PM 36.1386 -77.6317 18° North 418 481 41,000  Level Washington Center
09:18PM 36.2522 -77.5856 19° North 428 493 41,000  Level Washington Center
09:19PM 36.3636 -77.5367 19° North 428 493 41,000  Level Washington Center
09:20PM 36.4603 -77.4953 19° North 419 482 41,000  Level Washington Center
09:21PM 36.5714 -77.4489 20° North 414 476 41,000  Level Washington Center
09:22PM 36.6808 -77.3997 19° North 414 476 41,000  Level Washington Center
09:23PM 36.8067 -77.3456 19° North 414 476 41,000  Level Washington Center
09:24PM 36.9181 -77.2986 19° North 414 476 41,000  Level Washington Center
09:25PM 37.0292 -77.2517 19° North 414 476 41,000  Level Washington Center
09:26PM 37.1403 -77.2044 19° North 414 476 41,000  Level Washington Center
09:27PM 37.2494 -77.1572 23° Northeast 414 476 41,000  Level Washington Center
09:28PM 37.3628 -77.0969 32° Northeast 432 497 41,000  Level Washington Center
09:29PM 37.4556 -77.0228 29° Northeast 436 502 41,000  Level Washington Center
09:30PM 37.5650 -76.9464 31° Northeast 442 509 41,000  Level Washington Center
09:31PM 37.6681 -76.8694 31° Northeast 442 509 41,000  Level Washington Center
09:32PM 37.7731 -76.7897 30° Northeast 442 509 41,000  Level Washington Center
09:33PM 37.8781 -76.7125 31° Northeast 442 509 41,000  Level Washington Center
09:34PM 37.9811 -76.6325 31° Northeast 437 503 41,000  Level Washington Center
09:35PM 38.0839 -76.5547 30° Northeast 432 497 41,000  Level Washington Center
09:36PM 38.1886 -76.4767 31° Northeast 432 497 41,000  Level Washington Center
09:37PM 38.2936 -76.3958 35° Northeast 432 497 41,000  Level Washington Center
09:38PM 38.4047 -76.2964 37° Northeast 437 503 41,000 -600 Level Washington Center
09:39PM 38.5011 -76.2044 35° Northeast 437 503 39,900 -1,860 Descending Washington Center
09:40PM 38.5994 -76.1178 36° Northeast 442 509 37,300 -2,640 Descending Washington Center
09:41PM 38.7000 -76.0253 37° Northeast 437 503 34,600 -3,000 Descending Washington Center
09:42PM 38.8003 -75.9272 37° Northeast 437 503 31,400 -3,420 Descending Washington Center
09:43PM 38.9028 -75.8292 38° Northeast 442 509 27,900 -2,220 Descending Washington Center
09:44PM 38.9986 -75.7333 36° Northeast 447 514 27,000 -480 Descending Washington Center
09:45PM 39.0989 -75.6397 36° Northeast 442 509 27,000  Level Washington Center
09:46PM 39.1967 -75.5486 35° Northeast 442 509 27,000 -420 Level Washington Center
09:47PM 39.2989 -75.4547 35° Northeast 442 509 26,200 -960 Descending Washington Center
09:48PM 39.4008 -75.3633 34° Northeast 437 503 25,100 -1,200 Descending Washington Center
09:49PM 39.5006 -75.2769 35° Northeast 437 503 23,900 -1,500 Descending Washington Center
09:50PM 39.6003 -75.1850 37° Northeast 437 503 22,200 -1,740 Descending Washington Center
09:51PM 39.6875 -75.1008 32° Northeast 437 503 20,500 -2,220 Descending Washington Center
09:52PM 39.7975 -75.0108 38° Northeast 432 497 17,800 -2,400 Descending Washington Center
09:54PM 39.9653 -74.8389 49° Northeast 406 467 13,300 -2,040 Descending Washington Center
09:56PM 40.1000 -74.6333 49° Northeast 368 423 10,000 -1,140 Descending New York TRACON
09:57PM 40.1667 -74.5333 44° Northeast 371 427 10,000  Level New York TRACON
09:58PM 40.2333 -74.4500 37° Northeast 371 427 10,000  Level New York TRACON
09:59PM 40.3167 -74.3667 37° Northeast 323 372 10,000 -720 Level New York TRACON
10:00PM 40.3833 -74.3000 37° Northeast 298 343 8,500 -1,500 Descending New York TRACON
10:01PM 40.4500 -74.2333 45° Northeast 292 336 7,100 -840 Descending New York TRACON
10:02PM 40.5000 -74.1667 37° Northeast 272 313 6,900 -720 Descending New York TRACON
10:03PM 40.5667 -74.1000 37° Northeast 263 303 5,700 -1,380 Descending New York TRACON
10:04PM 40.6167 -74.0500 37° Northeast 261 300 4,200 -900 Descending New York TRACON
10:05PM 40.6833 -73.9833 62° Northeast 263 303 4,000 -240 Descending New York TRACON
10:06PM 40.7167 -73.9000 62° Northeast 263 303 3,800 -480 Descending New York TRACON
10:07PM 40.7500 -73.8167 27° Northeast 244 281 3,000 -600 Descending New York TRACON
10:08PM 40.8000 -73.7833 21° North 183 211 2,600 -540 Descending New York TRACON
10:09PM 40.8333 -73.7667 21° North 169 194 2,000 -600 Descending New York TRACON